Hauptseite
METAR-TAF:

METAR-TAF

Flughäfen :

RAF Lossiemouth

Lossiemouth, Schottland

Breite: 57-43N, Länge: 003-19W, Höhe: 13 m

Beobachtung

Neuester Wetterbericht von vor 53 Minuten, um 19:50 UTC
Wind 9 kt aus Süd/Südost
Temperatur 21°C
Luftfeuchtigkeit 64%
Luftdruck 1015 hPa
Sichtweite 10 km oder mehr
keine Wolken unter 1500 m und keine Kumulonimbus oder Gewitterwolken

METAR: EGQS 251950Z 15009KT CAVOK 21/14 Q1015 RMK BLU

Zeit: 21:43 (20:43 UTC)

Prognose

Neuester Wetterbericht von vor 1 Stunde und 2 Minuten, um 19:41 UTC
Gültige Prognose vom 25 um 21 UTC bis 26 um 15 UTC
Wind 5 kt aus Süd/Südwest
Sichtweite 10 km oder mehr
keine Wolken unter 1500 m und keine Kumulonimbus oder Gewitterwolken
Wahrscheinlichkeit 30% :
Zeitweise
vom 26 um 01 UTC bis 26 um 07 UTC
Sichtweite: 6000 m
feuchter Dunst

TAF: EGQS 251941Z 2521/2615 20005KT CAVOK PROB30 TEMPO 2601/2607 6000 BR

Wetterbeobachtungen und Prognosen von mehr als 4000 Flughäfen (METAR und TAF Bericht).

Die verfügbaren Stationen werden durch gelbe und rote Markierungen auf der Karte dargestellt.

Führen Sie die Maus auf sie, um den Namen der Station zu sehen.

Darauf klicken, um die Beobachtung von Wetterbeobachtungen und Prognosen zu sehen.

Um die Karte zu ändern : klicken Sie auf den grünen Tasten mit einem schwarzen Kreuz Zum Vergrößern, auf den grünen Button mit einem Gedankenstrich zu verkleinern, oder auf die grünen Pfeile für benachbarte Karten.


METAR-TAF: